Flight Track Log - Related Links

Times and Time Zones

All times are in EDT time to prevent confusion due to time zone crossing. See the SWA1802 flight status page for this flight to view local times or setup timezone preferences in your user account.

Time Position Orientation Groundspeed Altitude Reporting Facility
EDT Latitude Longitude Course Direction KTS MPH feet Rate Location/Type
Sat 01:27:31 PM 41.7000 -87.8433 214° Southwest 204 235 6,900  Level Chicago Center
Sat 01:28:32 PM 41.6361 -87.9133 219° Southwest 260 299 10,400 3,024 Climbing Chicago Center
Sat 01:29:34 PM 41.5764 -87.9822 221° Southwest 284 327 13,100 1,268 Climbing Chicago Center
Sat 01:30:35 PM 41.5150 -88.0553 222° Southwest 298 343 13,000 1,220 Descending Chicago Center
Sat 01:31:37 PM 41.4569 -88.1217 221° Southwest 288 331 15,600 2,565 Climbing Chicago Center
Sat 01:32:39 PM 41.3736 -88.1939 213° Southwest 311 358 18,300 2,661 Climbing Chicago Center
Sat 01:33:41 PM 41.2861 -88.2333 199° South 339 390 21,100 2,293 Climbing Chicago Center
Sat 01:34:42 PM 41.1997 -88.2989 210° Southwest 363 418 23,000 1,805 Climbing Chicago Center
Sat 01:35:44 PM 41.1142 -88.3836 217° Southwest 381 438 24,800 1,887 Climbing Chicago Center
Sat 01:36:46 PM 41.0242 -88.4708 216° Southwest 398 458 26,900 2,049 Climbing Chicago Center
Sat 01:37:47 PM 40.9122 -88.5783 216° Southwest 413 475 29,000 2,098 Climbing Chicago Center
Sat 01:38:49 PM 40.8167 -88.6697 216° Southwest 426 490 31,200 2,081 Climbing Chicago Center
Sat 01:39:51 PM 40.7242 -88.7592 216° Southwest 417 480 33,300 2,000 Climbing Chicago Center
Sat 01:40:52 PM 40.6333 -88.8453 216° Southwest 407 468 35,300 1,805 Climbing Chicago Center
Sat 01:41:54 PM 40.5475 -88.9278 216° Southwest 402 463 37,000 1,659 Climbing Chicago Center
Sat 01:42:55 PM 40.4586 -89.0103 215° Southwest 392 451 38,700 1,463 Climbing Chicago Center
Sat 01:43:57 PM 40.3725 -89.0917 216° Southwest 384 442 40,000 629 Climbing Chicago Center
Sat 01:44:59 PM 40.2686 -89.1897 216° Southwest 382 440 40,000  Level Chicago Center
Sat 01:46:00 PM 40.1825 -89.2706 216° Southwest 381 438 40,000  Level Chicago Center
Sat 01:47:02 PM 40.0972 -89.3503 216° Southwest 377 434 40,000  Level Kansas City Center
Sat 01:48:05 PM 40.0122 -89.4311 216° Southwest 378 435 40,000  Level Kansas City Center
Sat 01:49:05 PM 39.9272 -89.5097 215° Southwest 376 433 40,000  Level Kansas City Center
Sat 01:50:09 PM 39.8433 -89.5872 215° Southwest 372 428 40,000  Level Kansas City Center
Sat 01:51:09 PM 39.7581 -89.6644 215° Southwest 372 428 40,000  Level Kansas City Center
Sat 01:52:11 PM 39.6750 -89.7428 216° Southwest 373 429 40,000  Level Kansas City Center
Sat 01:53:13 PM 39.5744 -89.8361 216° Southwest 374 430 40,000  Level Kansas City Center
Sat 01:54:14 PM 39.4883 -89.9136 215° Southwest 376 433 40,000  Level Kansas City Center
Sat 01:55:17 PM 39.4028 -89.9922 215° Southwest 377 434 40,000  Level Kansas City Center
Sat 01:56:18 PM 39.3178 -90.0700 215° Southwest 377 434 40,000  Level Kansas City Center
Sat 01:57:19 PM 39.2333 -90.1481 216° Southwest 375 432 40,000  Level Kansas City Center
Sat 01:58:23 PM 39.1472 -90.2253 215° Southwest 377 434 40,000  Level Kansas City Center
Sat 01:59:24 PM 39.0628 -90.3025 215° Southwest 376 433 40,000  Level Kansas City Center
Sat 02:00:26 PM 38.9617 -90.3944 215° Southwest 374 430 40,000  Level Kansas City Center
Sat 02:01:26 PM 38.8797 -90.4689 215° Southwest 370 426 40,000  Level Kansas City Center
Sat 02:02:30 PM 38.8167 -90.5717 232° Southwest 373 429 40,000  Level Kansas City Center
Sat 02:03:32 PM 38.7600 -90.6842 237° Southwest 374 430 40,000  Level Kansas City Center
Sat 02:04:32 PM 38.6917 -90.7808 228° Southwest 379 436 40,000  Level Kansas City Center
Sat 02:05:32 PM 38.6022 -90.8867 223° Southwest 371 427 40,000  Level Kansas City Center
Sat 02:06:37 PM 38.5275 -90.9786 224° Southwest 374 430 40,000  Level Kansas City Center
Sat 02:07:37 PM 38.4517 -91.0708 224° Southwest 377 434 40,000  Level Kansas City Center
Sat 02:08:40 PM 38.3756 -91.1631 224° Southwest 380 437 40,000  Level Kansas City Center
Sat 02:09:41 PM 38.2989 -91.2553 223° Southwest 379 436 40,000  Level Kansas City Center
Sat 02:10:43 PM 38.2242 -91.3444 223° Southwest 374 430 40,000  Level Kansas City Center
Sat 02:11:44 PM 38.1403 -91.4439 223° Southwest 374 430 40,000  Level Kansas City Center
Sat 02:12:45 PM 38.0650 -91.5356 224° Southwest 373 429 40,000  Level Kansas City Center
Sat 02:13:49 PM 37.9883 -91.6264 223° Southwest 373 429 40,000  Level Kansas City Center
Sat 02:14:50 PM 37.9119 -91.7183 224° Southwest 375 432 40,000  Level Kansas City Center
Sat 02:15:52 PM 37.8189 -91.8281 223° Southwest 376 433 40,000  Level Kansas City Center
Sat 02:16:53 PM 37.7425 -91.9186 223° Southwest 373 429 40,000  Level Kansas City Center
Sat 02:17:53 PM 37.6644 -92.0106 223° Southwest 377 434 40,000  Level Kansas City Center
Sat 02:18:55 PM 37.5872 -92.1011 223° Southwest 375 432 40,000  Level Kansas City Center
Sat 02:19:56 PM 37.5103 -92.1914 223° Southwest 374 430 40,000  Level Kansas City Center
Sat 02:20:58 PM 37.4342 -92.2808 223° Southwest 373 429 40,000  Level Kansas City Center
Sat 02:22:02 PM 37.3558 -92.3711 223° Southwest 377 434 40,000  Level Kansas City Center
Sat 02:23:03 PM 37.2778 -92.4619 223° Southwest 379 436 40,000  Level Kansas City Center
Sat 02:24:05 PM 37.2014 -92.5522 223° Southwest 376 433 40,000  Level Kansas City Center
Sat 02:25:05 PM 37.1233 -92.6403 222° Southwest 376 433 40,000  Level Kansas City Center
Sat 02:26:06 PM 37.0456 -92.7278 222° Southwest 374 430 40,000  Level Kansas City Center
Sat 02:27:07 PM 36.9692 -92.8197 224° Southwest 377 434 40,000  Level Kansas City Center
Sat 02:28:11 PM 36.8758 -92.9242 222° Southwest 374 430 40,000  Level Kansas City Center
Sat 02:29:13 PM 36.7994 -93.0114 222° Southwest 371 427 40,000 -49 Level Kansas City Center
Sat 02:30:14 PM 36.7225 -93.0978 222° Southwest 371 427 39,900 -541 Descending Kansas City Center
Sat 02:31:15 PM 36.6333 -93.1706 213° Southwest 385 443 38,900 -927 Descending Kansas City Center
Sat 02:32:17 PM 36.5464 -93.2475 215° Southwest 386 444 38,000 -439 Descending Kansas City Center
Sat 02:33:18 PM 36.4622 -93.3242 216° Southwest 382 440 38,000  Level Kansas City Center
Sat 02:34:21 PM 36.3772 -93.3986 215° Southwest 379 436 38,000  Level Kansas City Center
Sat 02:35:01 PM 36.3036 -93.4628 215° Southwest 388 447 38,000  Level Memphis Center
Sat 02:36:01 PM 36.2203 -93.5367 216° Southwest 388 447 38,000  Level Memphis Center
Sat 02:37:01 PM 36.1308 -93.6156 215° Southwest 388 447 38,000  Level Memphis Center
Sat 02:38:01 PM 36.0453 -93.6917 216° Southwest 388 447 38,000  Level Memphis Center
Sat 02:39:01 PM 35.9600 -93.7650 215° Southwest 388 447 38,000  Level Memphis Center
Sat 02:40:01 PM 35.8725 -93.8383 214° Southwest 388 447 38,000  Level Memphis Center
Sat 02:41:01 PM 35.7847 -93.9167 216° Southwest 388 447 38,000  Level Memphis Center
Sat 02:42:01 PM 35.6992 -93.9894 215° Southwest 388 447 38,000  Level Memphis Center
Sat 02:43:01 PM 35.6136 -94.0650 216° Southwest 388 447 38,000  Level Memphis Center
Sat 02:44:01 PM 35.5258 -94.1375 214° Southwest 388 447 38,000  Level Memphis Center
Sat 02:45:01 PM 35.4381 -94.2125 215° Southwest 388 447 38,000  Level Memphis Center
Sat 02:46:01 PM 35.3628 -94.2806 216° Southwest 393 452 38,000  Level Memphis Center
Sat 02:47:53 PM 35.1892 -94.4261 214° Southwest 370 426 38,000  Level Fort Worth Center
Sat 02:48:53 PM 35.1033 -94.5003 215° Southwest 375 432 38,000  Level Fort Worth Center
Sat 02:49:53 PM 35.0175 -94.5717 214° Southwest 375 432 38,000  Level Fort Worth Center
Sat 02:50:53 PM 34.9317 -94.6481 216° Southwest 375 432 38,000  Level Fort Worth Center
Sat 02:51:53 PM 34.8456 -94.7192 214° Southwest 380 437 38,000  Level Fort Worth Center
Sat 02:52:53 PM 34.7594 -94.7900 214° Southwest 380 437 38,000  Level Fort Worth Center
Sat 02:53:53 PM 34.6711 -94.8661 215° Southwest 380 437 38,000  Level Fort Worth Center
Sat 02:54:53 PM 34.5831 -94.9392 214° Southwest 380 437 38,000  Level Fort Worth Center
Sat 02:55:53 PM 34.4947 -95.0122 214° Southwest 386 444 38,000  Level Fort Worth Center
Sat 02:56:53 PM 34.4083 -95.0853 215° Southwest 386 444 38,000  Level Fort Worth Center
Sat 02:57:53 PM 34.3158 -95.1581 213° Southwest 391 450 38,000  Level Fort Worth Center
Sat 02:58:53 PM 34.2294 -95.2306 215° Southwest 391 450 38,000  Level Fort Worth Center
Sat 02:59:53 PM 34.1369 -95.3058 214° Southwest 399 459 38,000  Level Fort Worth Center
Sat 03:00:53 PM 34.0464 -95.3806 214° Southwest 399 459 38,000  Level Fort Worth Center
Sat 03:01:53 PM 33.9556 -95.4528 213° Southwest 393 452 38,000  Level Fort Worth Center
Sat 03:02:53 PM 33.8650 -95.5275 214° Southwest 399 459 38,000  Level Fort Worth Center
Sat 03:03:53 PM 33.7783 -95.5967 214° Southwest 393 452 38,000  Level Fort Worth Center
Sat 03:04:53 PM 33.6875 -95.6686 213° Southwest 393 452 38,000  Level Fort Worth Center
Sat 03:05:53 PM 33.5989 -95.7425 215° Southwest 393 452 38,000  Level Fort Worth Center
Sat 03:06:53 PM 33.5058 -95.8167 214° Southwest 393 452 38,000  Level Fort Worth Center
Sat 03:07:53 PM 33.4128 -95.8906 214° Southwest 398 458 38,000  Level Fort Worth Center
Sat 03:08:53 PM 33.3281 -95.9589 214° Southwest 390 449 38,000  Level Fort Worth Center
Sat 03:09:53 PM 33.2369 -96.0325 214° Southwest 390 449 38,000  Level Fort Worth Center
Sat 03:10:53 PM 33.1481 -96.1033 214° Southwest 395 455 38,000  Level Fort Worth Center
Sat 03:11:53 PM 33.0592 -96.1767 215° Southwest 395 455 38,000  Level Fort Worth Center
Sat 03:12:53 PM 32.9636 -96.2497 213° Southwest 395 455 38,000  Level Fort Worth Center
Sat 03:13:53 PM 32.8725 -96.3225 214° Southwest 395 455 38,000 -200 Level Fort Worth Center
Sat 03:14:53 PM 32.7814 -96.3953 214° Southwest 395 455 37,600 -650 Descending Fort Worth Center
Sat 03:15:53 PM 32.6858 -96.4606 210° Southwest 395 455 36,700 -950 Descending Fort Worth Center
Sat 03:16:53 PM 32.5817 -96.5161 204° Southwest 395 455 35,700 -1,000 Descending Fort Worth Center
Sat 03:17:53 PM 32.4778 -96.5686 203° Southwest 402 463 34,700 -950 Descending Fort Worth Center
Sat 03:18:53 PM 32.3736 -96.6239 204° Southwest 408 470 33,800 -950 Descending Fort Worth Center
Sat 03:19:53 PM 32.2675 -96.6764 203° Southwest 413 475 32,800 -1,000 Descending Fort Worth Center
Sat 03:20:53 PM 32.1614 -96.7311 204° Southwest 413 475 31,800 -950 Descending Fort Worth Center
Sat 03:21:53 PM 32.0531 -96.7883 204° Southwest 413 475 30,900 -950 Descending Fort Worth Center
Sat 03:22:53 PM 31.9489 -96.8406 203° Southwest 413 475 29,900 -950 Descending Fort Worth Center
Sat 03:23:53 PM 31.8386 -96.8975 204° Southwest 419 482 29,000 -898 Descending Fort Worth Center
Sat 03:25:00 PM 31.7283 -96.9508 202° Southwest 433 498 28,000 -930 Descending Houston Center
Sat 03:26:02 PM 31.6156 -97.0069 203° Southwest 433 498 27,000 -1,024 Descending Houston Center
Sat 03:27:03 PM 31.4833 -97.0719 203° Southwest 437 503 25,900 -1,268 Descending Houston Center
Sat 03:28:05 PM 31.3700 -97.1289 203° Southwest 438 504 24,400 -1,951 Descending Houston Center
Sat 03:29:06 PM 31.2611 -97.1833 203° Southwest 426 490 21,900 -1,805 Descending Houston Center
Sat 03:30:08 PM 31.1631 -97.2267 201° Southwest 380 437 20,700 -1,463 Descending Houston Center
Sat 03:31:09 PM 31.0708 -97.2633 199° South 353 406 18,900 -1,902 Descending Houston Center
Sat 03:32:11 PM 30.9811 -97.2997 199° South 345 397 16,800 -2,049 Descending Houston Center
Sat 03:33:12 PM 30.8867 -97.3342 197° South 364 419 14,700 -2,537 Descending Houston Center
Sat 03:34:14 PM 30.7725 -97.3847 201° Southwest 375 432 11,600 -2,293 Descending Houston Center
Sat 03:35:15 PM 30.6903 -97.4533 216° Southwest 364 419 10,000 -780 Descending Houston Center
Sat 03:36:17 PM 30.6092 -97.5225 216° Southwest 358 412 10,000  Level Houston Center
Sat 03:37:18 PM 30.5289 -97.5906 216° Southwest 356 410 10,000 -195 Level Houston Center
Sat 03:38:20 PM 30.4428 -97.5961 183° South 315 362 9,600 -927 Descending Houston Center
Sat 03:39:21 PM 30.3636 -97.5836 172° South 292 336 8,100 -1,366 Descending Houston Center
Sat 03:40:23 PM 30.2867 -97.5767 176° South 279 321 6,800 -927 Descending Houston Center
Sat 03:41:24 PM 30.2153 -97.5675 174° South 265 305 6,200 -390 Descending Houston Center
Sat 03:42:26 PM 30.1500 -97.5603 175° South 241 277 6,000 -581 Descending Houston Center
Sat 03:43:28 PM 30.0872 -97.5528 174° South 227 261 5,000 -1,122 Descending Houston Center
Sat 03:44:29 PM 30.0464 -97.6014 226° Southwest 227 261 3,700 -780 Descending Houston Center
Sat 03:45:31 PM 30.0775 -97.6653 299° West 231 266 3,400 -585 Descending Houston Center
Sat 03:46:32 PM 30.1236 -97.6783 346° North 181 208 2,500 -1,024 Descending Houston Center
Sat 03:47:34 PM 30.1608 -97.6742 North 158 182 1,300 -1,161 Descending Houston Center

Login

Don't have an account? Register now (free) for customized features, flight alerts, and more!